Lake In The Hills, Illinois
Current Conditions -  °F | °C
As of 1:52 PM on Wednesday 28 Jan 2015 (Local Time) from KDPA Reporting Station
Clear Clear  
Wind Chill: -5°   Ceiling: Unl
Heat Index:   Visibility: 10mi
Dew Point: -7°   Wind: 15mph
Humidity: 59%   Direction: 160°SSE
Pressure: 30.1"   Gusts: NA
Location:  42.18°N, 88.33°W
Report Text: KDPA 281952Z 16013KT 10SM CLR 01/M07 A3010 RMK AO2 SLP202 T00061067
Loading
Personal Weather Stations






























Interactive Weather Map New forecast layout! Learn more

10-Day Weather Forecast

Advertisements
Track Severe Weather on mobile